Anatolii Hankevych — UXEG — position and weather

sailwx.info

Track history (hours):
 
Tides and Currents Weather Stations Pressure Air Temp Water Temp Dewpoint Dewpoint Depression Visibility Wind Speed Wind Dir Waves Ship Positions

Anatolii Hankevych

Last reported at 2018-Apr-21 01:14 UTC. Time now 2018-Apr-23 05:19 UTC.
Position N 46°60' E 031°54'.

Length 29 m; draft 1.4 m.

Type: Tug. MMSI: 272158300.

Date/timePositionNaut miles runAvg speedWind from/ knotsBaromVisibWave heightAir tempDewpointWater temp
2018-Apr-21 01:14N 46°60' E 031°54'1 3.7
2018-Apr-21 00:58N 47°00' E 031°56'2 3.4
2018-Apr-21 00:30N 47°01' E 031°58'1 1.8
2018-Apr-21 00:00N 46°60' E 031°59'0 0.0
2018-Apr-20 23:30N 46°60' E 031°59'0 0.6
2018-Apr-20 23:00N 46°60' E 031°59'0 0.2
2018-Apr-20 22:30N 46°60' E 031°59'1 2.6
2018-Apr-20 22:01N 46°59' E 031°57'1 2.6
2018-Apr-20 21:30N 46°60' E 031°59'2 3.6
2018-Apr-20 21:00N 46°58' E 031°57'2 4.1
2018-Apr-20 20:30N 46°57' E 031°55'2 4.0
2018-Apr-20 20:00N 46°56' E 031°58'1 2.2
2018-Apr-20 19:30N 46°56' E 031°59'0 0.6
2018-Apr-20 19:00N 46°57' E 031°59'0 0.4
2018-Apr-20 18:30N 46°57' E 031°59'0 0.1
2018-Apr-20 18:00N 46°57' E 031°59'0 0.4
2018-Apr-20 17:30N 46°57' E 031°59'0 0.4
2018-Apr-20 17:00N 46°56' E 031°59'0 0.5
2018-Apr-20 16:30N 46°57' E 031°59'0 0.0
2018-Apr-20 16:00N 46°57' E 031°59'0 0.0
2018-Apr-20 15:30N 46°57' E 031°59'0 0.0
2018-Apr-20 15:00N 46°57' E 031°59'0 0.0
2018-Apr-20 14:30N 46°57' E 031°59'0 0.0
2018-Apr-20 14:00N 46°57' E 031°59'0 0.0
2018-Apr-20 13:30N 46°57' E 031°59'0 0.0
2018-Apr-20 13:00N 46°57' E 031°59'0 0.0
2018-Apr-20 12:30N 46°57' E 031°59'0 0.0
2018-Apr-20 12:00N 46°57' E 031°59'0 0.0
2018-Apr-20 11:30N 46°57' E 031°59'0 0.0
2018-Apr-20 11:00N 46°57' E 031°59'0 0.0
2018-Apr-20 10:30N 46°57' E 031°59'0 0.0
2018-Apr-20 10:00N 46°57' E 031°59'0 0.1
2018-Apr-20 09:30N 46°57' E 031°59'0 0.6
2018-Apr-20 09:01N 46°57' E 031°59'0 0.9
2018-Apr-20 08:30N 46°57' E 031°59'0 0.1
2018-Apr-20 08:00N 46°56' E 031°59'0 0.0
2018-Apr-20 07:30N 46°56' E 031°59'0 0.0
2018-Apr-20 07:00N 46°56' E 031°59'0 0.0
2018-Apr-20 06:29N 46°56' E 031°59'0 0.0
2018-Apr-20 06:00N 46°56' E 031°59'0 0.0
2018-Apr-20 05:30N 46°56' E 031°59'0 0.0
2018-Apr-20 05:00N 46°56' E 031°59'0 0.0
2018-Apr-20 04:30N 46°56' E 031°59'0 0.0
2018-Apr-20 04:00N 46°56' E 031°59'0 0.0
2018-Apr-20 03:30N 46°56' E 031°59'0 0.0
2018-Apr-20 03:00N 46°56' E 031°59'0 0.0
2018-Apr-20 02:30N 46°56' E 031°59'0 0.0
2018-Apr-20 02:00N 46°56' E 031°59'0 0.0
2018-Apr-20 01:30N 46°56' E 031°59'0 0.0
2018-Apr-20 01:00N 46°56' E 031°59'0 0.0
2018-Apr-20 00:30N 46°56' E 031°59'0 0.0
2018-Apr-20 00:00N 46°56' E 031°59'0 0.0
2018-Apr-19 23:30N 46°56' E 031°59'0 0.0
2018-Apr-19 23:00N 46°56' E 031°59'0 0.0
2018-Apr-19 22:30N 46°56' E 031°59'0 0.0
2018-Apr-19 22:00N 46°56' E 031°59'0 0.0
2018-Apr-19 21:30N 46°56' E 031°59'0 0.0
2018-Apr-19 20:56N 46°56' E 031°59'0 0.3
2018-Apr-19 20:30N 46°56' E 031°59'1 2.3
2018-Apr-19 20:00N 46°56' E 031°58'1 2.9
2018-Apr-19 19:30N 46°56' E 031°56'1 2.7
2018-Apr-19 19:00N 46°57' E 031°55'1 2.7
2018-Apr-19 18:30N 46°58' E 031°57'1 2.7
2018-Apr-19 18:00N 46°59' E 031°58'1 2.2
2018-Apr-19 17:30N 47°00' E 031°58'1 2.2
2018-Apr-19 17:00N 47°00' E 031°57'2 2.4
2018-Apr-19 16:20N 46°60' E 031°55'  
2018-Apr-17 10:37N 46°60' E 031°55'1 3.9
2018-Apr-17 10:26N 47°00' E 031°56'2 3.7
2018-Apr-17 10:00N 47°01' E 031°58'1 2.0
2018-Apr-17 09:30N 46°60' E 031°59'1 1.0
2018-Apr-17 09:00N 46°59' E 031°58'1 1.5
2018-Apr-17 08:30N 46°59' E 031°58'0 0.7
2018-Apr-17 08:00N 46°59' E 031°58'1 1.1
2018-Apr-17 07:30N 46°59' E 031°57'2 4.0
2018-Apr-17 07:00N 46°57' E 031°55'2 3.2
2018-Apr-17 06:30N 46°56' E 031°56'0 1.0
2018-Apr-17 06:00N 46°56' E 031°56'1 2.3
2018-Apr-17 05:30N 46°56' E 031°58'1 1.5
2018-Apr-17 05:00N 46°56' E 031°59'0 0.9
2018-Apr-17 04:31N 46°57' E 031°59'0 0.0
2018-Apr-17 04:00N 46°57' E 031°59'0 0.0
2018-Apr-17 03:30N 46°57' E 031°59'0 0.0
2018-Apr-17 03:00N 46°57' E 031°59'0 0.0
2018-Apr-17 02:30N 46°57' E 031°59'0 0.0
2018-Apr-17 02:00N 46°57' E 031°59'0 0.2
2018-Apr-17 01:30N 46°56' E 031°59'0 0.4
2018-Apr-17 01:00N 46°56' E 031°59'0 0.3
2018-Apr-17 00:30N 46°56' E 031°59'0 0.4
2018-Apr-17 00:00N 46°57' E 031°59'0 0.1
2018-Apr-16 23:30N 46°57' E 031°59'0 0.0
2018-Apr-16 23:00N 46°57' E 031°59'0 0.0
2018-Apr-16 22:30N 46°57' E 031°59'0 0.0
2018-Apr-16 22:00N 46°57' E 031°59'0 0.0
2018-Apr-16 21:30N 46°57' E 031°59'0 0.0
2018-Apr-16 21:00N 46°57' E 031°59'0 0.3
2018-Apr-16 20:30N 46°56' E 031°59'0 0.5
2018-Apr-16 20:01N 46°56' E 031°59'0 0.1
2018-Apr-16 19:30N 46°56' E 031°59'1 1.4
2018-Apr-16 19:01N 46°57' E 031°59'0 0.2
2018-Apr-16 18:30N 46°57' E 031°59'1 1.3
2018-Apr-16 18:00N 46°56' E 031°59'0 0.6
2018-Apr-16 17:30N 46°57' E 031°59'0 0.2
2018-Apr-16 17:00N 46°56' E 031°59'0 0.2
2018-Apr-16 16:30N 46°57' E 031°59'0 0.1
2018-Apr-16 16:01N 46°56' E 031°59'1 1.1
2018-Apr-16 15:31N 46°57' E 031°59'0 0.2
2018-Apr-16 15:00N 46°57' E 031°59'0 0.1
2018-Apr-16 14:30N 46°57' E 031°59'0 0.2
2018-Apr-16 14:01N 46°57' E 031°59'0 0.0
2018-Apr-16 13:31N 46°57' E 031°59'0 0.7
2018-Apr-16 13:01N 46°57' E 031°59'0 0.0
2018-Apr-16 12:30N 46°57' E 031°59'0 0.1
2018-Apr-16 12:01N 46°57' E 031°59'0 0.0
2018-Apr-16 11:30N 46°57' E 031°59'0 0.0
2018-Apr-16 11:00N 46°57' E 031°59'0 0.8
2018-Apr-16 10:31N 46°57' E 031°59'0 0.1
2018-Apr-16 10:00N 46°57' E 031°59'0 0.7
2018-Apr-16 09:30N 46°57' E 031°59'0 0.0
2018-Apr-16 09:00N 46°57' E 031°59'0 0.0
2018-Apr-16 08:30N 46°57' E 031°59'0 0.0
2018-Apr-16 08:00N 46°57' E 031°59'0 0.4
2018-Apr-16 07:30N 46°57' E 031°59'0 0.3
2018-Apr-16 07:00N 46°57' E 031°59'0 0.1
2018-Apr-16 06:30N 46°57' E 031°59'0 0.2
2018-Apr-16 06:00N 46°57' E 031°59'0 0.0
2018-Apr-16 05:30N 46°57' E 031°59'0 0.0
2018-Apr-16 05:00N 46°57' E 031°59'0 0.0
2018-Apr-16 04:30N 46°57' E 031°59'0 0.0
2018-Apr-16 04:00N 46°57' E 031°59'0 0.0
2018-Apr-16 03:30N 46°57' E 031°59'0 0.0
2018-Apr-16 03:00N 46°57' E 031°59'0 0.0
2018-Apr-16 02:30N 46°57' E 031°59'0 0.0
2018-Apr-16 02:00N 46°57' E 031°59'0 0.7
2018-Apr-16 01:30N 46°56' E 031°59'0 0.2
2018-Apr-16 01:00N 46°56' E 031°59'0 0.8
2018-Apr-16 00:30N 46°57' E 031°59'0 0.0
2018-Apr-16 00:00N 46°57' E 031°59'0 0.0
2018-Apr-15 23:30N 46°57' E 031°59'0 0.0
2018-Apr-15 23:00N 46°57' E 031°59'0 0.0
2018-Apr-15 22:30N 46°57' E 031°59'0 0.0
2018-Apr-15 22:00N 46°57' E 031°59'0 0.0
2018-Apr-15 21:30N 46°57' E 031°59'0 0.0
2018-Apr-15 21:00N 46°57' E 031°59'0 0.0
2018-Apr-15 20:30N 46°57' E 031°59'0 0.0
2018-Apr-15 20:00N 46°57' E 031°59'0 0.0
2018-Apr-15 19:30N 46°57' E 031°59'0 0.5
2018-Apr-15 19:00N 46°57' E 031°59'1 1.5
2018-Apr-15 18:30N 46°56' E 031°58'1 3.0
2018-Apr-15 18:00N 46°56' E 031°56'1 2.9
2018-Apr-15 17:30N 46°57' E 031°55'1 3.0
2018-Apr-15 17:00N 46°58' E 031°57'1 3.0
2018-Apr-15 16:30N 46°59' E 031°58'1 2.5
2018-Apr-15 16:00N 47°01' E 031°58'0 0.1
2018-Apr-15 15:30N 47°00' E 031°58'1 1.1
2018-Apr-15 15:00N 47°01' E 031°57'2 2.8
2018-Apr-15 14:17N 46°60' E 031°55'  
2018-Apr-13 03:48N 46°60' E 031°54'1 4.1
2018-Apr-13 03:30N 47°00' E 031°56'2 3.6
2018-Apr-13 02:59N 47°00' E 031°59'0 0.4
2018-Apr-13 02:30N 46°60' E 031°59'1 2.8
2018-Apr-13 02:00N 46°59' E 031°57'1 1.6
2018-Apr-13 01:30N 46°59' E 031°58'0 0.9
2018-Apr-13 01:00N 46°59' E 031°58'1 2.4
2018-Apr-13 00:29N 46°58' E 031°56'2 3.7
2018-Apr-13 00:00N 46°57' E 031°55'2 3.4
2018-Apr-12 23:30N 46°56' E 031°57'1 2.5
2018-Apr-12 23:00N 46°56' E 031°59'0 0.6
2018-Apr-12 22:30N 46°56' E 031°59'1 1.0
2018-Apr-12 22:00N 46°56' E 031°59'1 1.6
2018-Apr-12 21:30N 46°56' E 031°58'2 3.7
2018-Apr-12 21:00N 46°56' E 031°55'2 3.6
2018-Apr-12 20:30N 46°58' E 031°56'2 3.8
2018-Apr-12 20:00N 46°59' E 031°58'1 2.4
2018-Apr-12 19:30N 47°01' E 031°58'0 0.1
2018-Apr-12 19:00N 47°00' E 031°58'1 1.5
2018-Apr-12 18:27N 47°01' E 031°57'2 2.6
2018-Apr-12 17:46N 46°60' E 031°55'  
Track history (hours):
 
Tides and Currents Weather Stations Pressure Air Temp Water Temp Dewpoint Dewpoint Depression Visibility Wind Speed Wind Dir Waves Ship Positions

Anatolii Hankevych

Last reported at 2018-Apr-21 01:14 UTC. Time now 2018-Apr-23 05:19 UTC.
Position N 46°60' E 031°54'.

Length 29 m; draft 1.4 m.

Type: Tug. MMSI: 272158300.

Date/timePositionNaut miles runAvg speedWind from/ knotsBaromVisibWave heightAir tempDewpointWater temp
2018-Apr-21 01:14N 46°60' E 031°54'1 3.7
2018-Apr-21 00:58N 47°00' E 031°56'2 3.4
2018-Apr-21 00:30N 47°01' E 031°58'1 1.8
2018-Apr-21 00:00N 46°60' E 031°59'0 0.0
2018-Apr-20 23:30N 46°60' E 031°59'0 0.6
2018-Apr-20 23:00N 46°60' E 031°59'0 0.2
2018-Apr-20 22:30N 46°60' E 031°59'1 2.6
2018-Apr-20 22:01N 46°59' E 031°57'1 2.6
2018-Apr-20 21:30N 46°60' E 031°59'2 3.6
2018-Apr-20 21:00N 46°58' E 031°57'2 4.1
2018-Apr-20 20:30N 46°57' E 031°55'2 4.0
2018-Apr-20 20:00N 46°56' E 031°58'1 2.2
2018-Apr-20 19:30N 46°56' E 031°59'0 0.6
2018-Apr-20 19:00N 46°57' E 031°59'0 0.4
2018-Apr-20 18:30N 46°57' E 031°59'0 0.1
2018-Apr-20 18:00N 46°57' E 031°59'0 0.4
2018-Apr-20 17:30N 46°57' E 031°59'0 0.4
2018-Apr-20 17:00N 46°56' E 031°59'0 0.5
2018-Apr-20 16:30N 46°57' E 031°59'0 0.0
2018-Apr-20 16:00N 46°57' E 031°59'0 0.0
2018-Apr-20 15:30N 46°57' E 031°59'0 0.0
2018-Apr-20 15:00N 46°57' E 031°59'0 0.0
2018-Apr-20 14:30N 46°57' E 031°59'0 0.0
2018-Apr-20 14:00N 46°57' E 031°59'0 0.0
2018-Apr-20 13:30N 46°57' E 031°59'0 0.0
2018-Apr-20 13:00N 46°57' E 031°59'0 0.0
2018-Apr-20 12:30N 46°57' E 031°59'0 0.0
2018-Apr-20 12:00N 46°57' E 031°59'0 0.0
2018-Apr-20 11:30N 46°57' E 031°59'0 0.0
2018-Apr-20 11:00N 46°57' E 031°59'0 0.0
2018-Apr-20 10:30N 46°57' E 031°59'0 0.0
2018-Apr-20 10:00N 46°57' E 031°59'0 0.1
2018-Apr-20 09:30N 46°57' E 031°59'0 0.6
2018-Apr-20 09:01N 46°57' E 031°59'0 0.9
2018-Apr-20 08:30N 46°57' E 031°59'0 0.1
2018-Apr-20 08:00N 46°56' E 031°59'0 0.0
2018-Apr-20 07:30N 46°56' E 031°59'0 0.0
2018-Apr-20 07:00N 46°56' E 031°59'0 0.0
2018-Apr-20 06:29N 46°56' E 031°59'0 0.0
2018-Apr-20 06:00N 46°56' E 031°59'0 0.0
2018-Apr-20 05:30N 46°56' E 031°59'0 0.0
2018-Apr-20 05:00N 46°56' E 031°59'0 0.0
2018-Apr-20 04:30N 46°56' E 031°59'0 0.0
2018-Apr-20 04:00N 46°56' E 031°59'0 0.0
2018-Apr-20 03:30N 46°56' E 031°59'0 0.0
2018-Apr-20 03:00N 46°56' E 031°59'0 0.0
2018-Apr-20 02:30N 46°56' E 031°59'0 0.0
2018-Apr-20 02:00N 46°56' E 031°59'0 0.0
2018-Apr-20 01:30N 46°56' E 031°59'0 0.0
2018-Apr-20 01:00N 46°56' E 031°59'0 0.0
2018-Apr-20 00:30N 46°56' E 031°59'0 0.0
2018-Apr-20 00:00N 46°56' E 031°59'0 0.0
2018-Apr-19 23:30N 46°56' E 031°59'0 0.0
2018-Apr-19 23:00N 46°56' E 031°59'0 0.0
2018-Apr-19 22:30N 46°56' E 031°59'0 0.0
2018-Apr-19 22:00N 46°56' E 031°59'0 0.0
2018-Apr-19 21:30N 46°56' E 031°59'0 0.0
2018-Apr-19 20:56N 46°56' E 031°59'0 0.3
2018-Apr-19 20:30N 46°56' E 031°59'1 2.3
2018-Apr-19 20:00N 46°56' E 031°58'1 2.9
2018-Apr-19 19:30N 46°56' E 031°56'1 2.7
2018-Apr-19 19:00N 46°57' E 031°55'1 2.7
2018-Apr-19 18:30N 46°58' E 031°57'1 2.7
2018-Apr-19 18:00N 46°59' E 031°58'1 2.2
2018-Apr-19 17:30N 47°00' E 031°58'1 2.2
2018-Apr-19 17:00N 47°00' E 031°57'2 2.4
2018-Apr-19 16:20N 46°60' E 031°55'  
2018-Apr-17 10:37N 46°60' E 031°55'1 3.9
2018-Apr-17 10:26N 47°00' E 031°56'2 3.7
2018-Apr-17 10:00N 47°01' E 031°58'1 2.0
2018-Apr-17 09:30N 46°60' E 031°59'1 1.0
2018-Apr-17 09:00N 46°59' E 031°58'1 1.5
2018-Apr-17 08:30N 46°59' E 031°58'0 0.7
2018-Apr-17 08:00N 46°59' E 031°58'1 1.1
2018-Apr-17 07:30N 46°59' E 031°57'2 4.0
2018-Apr-17 07:00N 46°57' E 031°55'2 3.2
2018-Apr-17 06:30N 46°56' E 031°56'0 1.0
2018-Apr-17 06:00N 46°56' E 031°56'1 2.3
2018-Apr-17 05:30N 46°56' E 031°58'1 1.5
2018-Apr-17 05:00N 46°56' E 031°59'0 0.9
2018-Apr-17 04:31N 46°57' E 031°59'0 0.0
2018-Apr-17 04:00N 46°57' E 031°59'0 0.0
2018-Apr-17 03:30N 46°57' E 031°59'0 0.0
2018-Apr-17 03:00N 46°57' E 031°59'0 0.0
2018-Apr-17 02:30N 46°57' E 031°59'0 0.0
2018-Apr-17 02:00N 46°57' E 031°59'0 0.2
2018-Apr-17 01:30N 46°56' E 031°59'0 0.4
2018-Apr-17 01:00N 46°56' E 031°59'0 0.3
2018-Apr-17 00:30N 46°56' E 031°59'0 0.4
2018-Apr-17 00:00N 46°57' E 031°59'0 0.1
2018-Apr-16 23:30N 46°57' E 031°59'0 0.0
2018-Apr-16 23:00N 46°57' E 031°59'0 0.0
2018-Apr-16 22:30N 46°57' E 031°59'0 0.0
2018-Apr-16 22:00N 46°57' E 031°59'0 0.0
2018-Apr-16 21:30N 46°57' E 031°59'0 0.0
2018-Apr-16 21:00N 46°57' E 031°59'0 0.3
2018-Apr-16 20:30N 46°56' E 031°59'0 0.5
2018-Apr-16 20:01N 46°56' E 031°59'0 0.1
2018-Apr-16 19:30N 46°56' E 031°59'1 1.4
2018-Apr-16 19:01N 46°57' E 031°59'0 0.2
2018-Apr-16 18:30N 46°57' E 031°59'1 1.3
2018-Apr-16 18:00N 46°56' E 031°59'0 0.6
2018-Apr-16 17:30N 46°57' E 031°59'0 0.2
2018-Apr-16 17:00N 46°56' E 031°59'0 0.2
2018-Apr-16 16:30N 46°57' E 031°59'0 0.1
2018-Apr-16 16:01N 46°56' E 031°59'1 1.1
2018-Apr-16 15:31N 46°57' E 031°59'0 0.2
2018-Apr-16 15:00N 46°57' E 031°59'0 0.1
2018-Apr-16 14:30N 46°57' E 031°59'0 0.2
2018-Apr-16 14:01N 46°57' E 031°59'0 0.0
2018-Apr-16 13:31N 46°57' E 031°59'0 0.7
2018-Apr-16 13:01N 46°57' E 031°59'0 0.0
2018-Apr-16 12:30N 46°57' E 031°59'0 0.1
2018-Apr-16 12:01N 46°57' E 031°59'0 0.0
2018-Apr-16 11:30N 46°57' E 031°59'0 0.0
2018-Apr-16 11:00N 46°57' E 031°59'0 0.8
2018-Apr-16 10:31N 46°57' E 031°59'0 0.1
2018-Apr-16 10:00N 46°57' E 031°59'0 0.7
2018-Apr-16 09:30N 46°57' E 031°59'0 0.0
2018-Apr-16 09:00N 46°57' E 031°59'0 0.0
2018-Apr-16 08:30N 46°57' E 031°59'0 0.0
2018-Apr-16 08:00N 46°57' E 031°59'0 0.4
2018-Apr-16 07:30N 46°57' E 031°59'0 0.3
2018-Apr-16 07:00N 46°57' E 031°59'0 0.1
2018-Apr-16 06:30N 46°57' E 031°59'0 0.2
2018-Apr-16 06:00N 46°57' E 031°59'0 0.0
2018-Apr-16 05:30N 46°57' E 031°59'0 0.0
2018-Apr-16 05:00N 46°57' E 031°59'0 0.0
2018-Apr-16 04:30N 46°57' E 031°59'0 0.0
2018-Apr-16 04:00N 46°57' E 031°59'0 0.0
2018-Apr-16 03:30N 46°57' E 031°59'0 0.0
2018-Apr-16 03:00N 46°57' E 031°59'0 0.0
2018-Apr-16 02:30N 46°57' E 031°59'0 0.0
2018-Apr-16 02:00N 46°57' E 031°59'0 0.7
2018-Apr-16 01:30N 46°56' E 031°59'0 0.2
2018-Apr-16 01:00N 46°56' E 031°59'0 0.8
2018-Apr-16 00:30N 46°57' E 031°59'0 0.0
2018-Apr-16 00:00N 46°57' E 031°59'0 0.0
2018-Apr-15 23:30N 46°57' E 031°59'0 0.0
2018-Apr-15 23:00N 46°57' E 031°59'0 0.0
2018-Apr-15 22:30N 46°57' E 031°59'0 0.0
2018-Apr-15 22:00N 46°57' E 031°59'0 0.0
2018-Apr-15 21:30N 46°57' E 031°59'0 0.0
2018-Apr-15 21:00N 46°57' E 031°59'0 0.0
2018-Apr-15 20:30N 46°57' E 031°59'0 0.0
2018-Apr-15 20:00N 46°57' E 031°59'0 0.0
2018-Apr-15 19:30N 46°57' E 031°59'0 0.5
2018-Apr-15 19:00N 46°57' E 031°59'1 1.5
2018-Apr-15 18:30N 46°56' E 031°58'1 3.0
2018-Apr-15 18:00N 46°56' E 031°56'1 2.9
2018-Apr-15 17:30N 46°57' E 031°55'1 3.0
2018-Apr-15 17:00N 46°58' E 031°57'1 3.0
2018-Apr-15 16:30N 46°59' E 031°58'1 2.5
2018-Apr-15 16:00N 47°01' E 031°58'0 0.1
2018-Apr-15 15:30N 47°00' E 031°58'1 1.1
2018-Apr-15 15:00N 47°01' E 031°57'2 2.8
2018-Apr-15 14:17N 46°60' E 031°55'  
2018-Apr-13 03:48N 46°60' E 031°54'1 4.1
2018-Apr-13 03:30N 47°00' E 031°56'2 3.6
2018-Apr-13 02:59N 47°00' E 031°59'0 0.4
2018-Apr-13 02:30N 46°60' E 031°59'1 2.8
2018-Apr-13 02:00N 46°59' E 031°57'1 1.6
2018-Apr-13 01:30N 46°59' E 031°58'0 0.9
2018-Apr-13 01:00N 46°59' E 031°58'1 2.4
2018-Apr-13 00:29N 46°58' E 031°56'2 3.7
2018-Apr-13 00:00N 46°57' E 031°55'2 3.4
2018-Apr-12 23:30N 46°56' E 031°57'1 2.5
2018-Apr-12 23:00N 46°56' E 031°59'0 0.6
2018-Apr-12 22:30N 46°56' E 031°59'1 1.0
2018-Apr-12 22:00N 46°56' E 031°59'1 1.6
2018-Apr-12 21:30N 46°56' E 031°58'2 3.7
2018-Apr-12 21:00N 46°56' E 031°55'2 3.6
2018-Apr-12 20:30N 46°58' E 031°56'2 3.8
2018-Apr-12 20:00N 46°59' E 031°58'1 2.4
2018-Apr-12 19:30N 47°01' E 031°58'0 0.1
2018-Apr-12 19:00N 47°00' E 031°58'1 1.5
2018-Apr-12 18:27N 47°01' E 031°57'2 2.6
2018-Apr-12 17:46N 46°60' E 031°55'  

Dump ship's entire track history